Terminal Aerodrome Forecast
Issued by NWS Upton, NY

Home | Current Version | Previous Version | Text Only | Print | Product List | Glossary On
Versions: 1 2 3 4 5 6 7 8 9 10 11 12 13 14 15 16 17 18 19 20 21 22 23 24 25 26
000
FTUS41 KOKX 190200 AAA
TAFBDR
TAF AMD
KBDR 190230Z 1903/1924 36007KT P6SM FEW070
     FM190600 02010G15KT P6SM SCT070
     FM191200 06014G19KT P6SM FEW030 SCT050
     FM191800 09013KT P6SM FEW035 FEW250
     FM192100 13010KT P6SM SCT035 SCT250=

USA.gov is the U.S. government's official web portal to all federal, state and local government web resources and services.